createdAt,value
2022-12-18T00:03:56.479Z,28.15
2022-12-18T00:06:27.877Z,31.48
2022-12-18T00:08:57.386Z,31.08
2022-12-18T00:11:28.201Z,32.28
2022-12-18T00:13:57.759Z,30.85
2022-12-18T00:16:26.870Z,31.70
2022-12-18T00:18:56.638Z,29.90
2022-12-18T00:21:27.972Z,27.45
2022-12-18T00:23:55.984Z,30.52
2022-12-18T00:26:26.177Z,31.55
2022-12-18T00:29:09.576Z,30.08
2022-12-18T00:31:38.460Z,30.23
2022-12-18T00:34:06.000Z,30.10
2022-12-18T00:36:35.135Z,30.33
2022-12-18T00:39:04.689Z,31.02
2022-12-18T00:41:51.302Z,29.23
2022-12-18T00:44:19.685Z,27.30
2022-12-18T00:46:49.165Z,29.95
2022-12-18T00:49:19.103Z,28.98
2022-12-18T00:51:48.338Z,29.80
2022-12-18T00:54:17.074Z,28.90
2022-12-18T00:56:48.697Z,26.40
2022-12-18T00:59:18.724Z,27.98
2022-12-18T01:01:47.523Z,26.55
2022-12-18T01:04:15.605Z,26.80
2022-12-18T01:06:46.796Z,25.17
2022-12-18T01:09:14.843Z,27.30
2022-12-18T01:11:42.703Z,26.33
2022-12-18T01:14:12.423Z,26.55
2022-12-18T01:16:40.215Z,25.35
2022-12-18T01:19:07.853Z,26.42
2022-12-18T01:21:35.786Z,26.98
2022-12-18T01:24:06.260Z,25.38
2022-12-18T01:26:34.733Z,25.77
2022-12-18T01:29:02.706Z,27.15
2022-12-18T01:31:33.052Z,25.83
2022-12-18T01:34:05.809Z,25.65
2022-12-18T01:36:38.558Z,26.75
2022-12-18T01:39:12.678Z,26.15
2022-12-18T01:42:02.234Z,26.48
2022-12-18T01:44:56.851Z,26.48
2022-12-18T01:47:36.045Z,25.67
2022-12-18T01:50:14.808Z,26.40
2022-12-18T01:52:49.122Z,24.17
2022-12-18T01:55:20.121Z,24.42
2022-12-18T02:00:18.750Z,26.17
2022-12-18T02:02:47.831Z,24.13
2022-12-18T02:05:19.849Z,25.10
2022-12-18T02:07:56.169Z,25.80
2022-12-18T02:10:46.944Z,25.30
2022-12-18T02:13:42.257Z,25.75
2022-12-18T02:16:37.968Z,24.55
2022-12-18T02:19:20.493Z,23.55
2022-12-18T02:22:07.845Z,23.55
2022-12-18T02:25:05.843Z,22.63
2022-12-18T02:27:36.052Z,21.17
2022-12-18T02:30:06.220Z,23.00
2022-12-18T02:32:44.530Z,23.17
2022-12-18T02:35:18.870Z,23.02
2022-12-18T02:37:48.578Z,22.98
2022-12-18T02:40:18.081Z,21.55
2022-12-18T02:42:46.125Z,22.00
2022-12-18T02:45:16.833Z,22.38
2022-12-18T02:47:48.935Z,21.75
2022-12-18T02:50:34.610Z,22.08
2022-12-18T02:53:23.178Z,22.25
2022-12-18T02:56:10.653Z,22.38
2022-12-18T02:58:48.534Z,22.02
2022-12-18T03:01:39.705Z,20.02
2022-12-18T03:04:28.567Z,20.92
2022-12-18T03:07:06.175Z,21.73
2022-12-18T03:09:39.332Z,21.80
2022-12-18T03:12:25.329Z,22.80
2022-12-18T03:15:04.622Z,21.58
2022-12-18T03:17:34.251Z,20.48
2022-12-18T03:20:13.146Z,20.77
2022-12-18T03:22:45.616Z,20.98
2022-12-18T03:25:18.581Z,19.98
2022-12-18T03:27:54.792Z,21.77
2022-12-18T03:30:22.993Z,21.63
2022-12-18T03:33:00.690Z,20.55
2022-12-18T03:35:38.566Z,19.50
2022-12-18T03:38:06.933Z,20.77
2022-12-18T03:40:45.440Z,18.98
2022-12-18T03:43:21.775Z,18.90
2022-12-18T03:46:00.330Z,19.48
2022-12-18T03:48:36.417Z,20.08
2022-12-18T03:51:26.223Z,20.48
2022-12-18T03:53:58.488Z,22.05
2022-12-18T03:56:35.432Z,21.00
2022-12-18T03:59:05.523Z,23.08
2022-12-18T04:01:39.137Z,21.70
2022-12-18T04:04:09.411Z,20.80
2022-12-18T04:06:41.683Z,22.55
2022-12-18T04:09:11.753Z,21.92
2022-12-18T04:11:45.332Z,21.15
2022-12-18T04:14:17.887Z,21.20
2022-12-18T04:16:46.990Z,22.92
2022-12-18T04:19:17.458Z,21.90
2022-12-18T04:24:15.595Z,21.45
2022-12-18T04:26:52.525Z,21.70
2022-12-18T04:29:25.507Z,24.95
2022-12-18T04:31:53.394Z,22.65
2022-12-18T04:34:22.133Z,24.17
2022-12-18T04:36:53.188Z,22.65
2022-12-18T04:39:22.478Z,21.52
2022-12-18T04:41:52.216Z,24.27
2022-12-18T04:44:19.780Z,22.67
2022-12-18T04:46:47.243Z,23.20
2022-12-18T04:49:15.452Z,24.23
2022-12-18T04:51:43.054Z,23.35
2022-12-18T04:54:10.538Z,23.45
2022-12-18T04:56:38.077Z,24.33
2022-12-18T04:59:05.912Z,24.20
2022-12-18T05:01:35.045Z,24.50
2022-12-18T05:04:04.135Z,23.70
2022-12-18T05:06:31.703Z,22.83
2022-12-18T05:08:59.703Z,24.67
2022-12-18T05:11:27.091Z,23.88
2022-12-18T05:13:54.465Z,23.52
2022-12-18T05:16:24.720Z,25.23
2022-12-18T05:18:52.335Z,25.95
2022-12-18T05:21:20.181Z,22.88
2022-12-18T05:23:47.574Z,23.42
2022-12-18T05:26:18.624Z,23.48
2022-12-18T05:28:46.979Z,23.67
2022-12-18T05:31:15.047Z,23.40
2022-12-18T05:33:43.627Z,25.13
2022-12-18T05:36:12.141Z,24.52
2022-12-18T05:38:40.298Z,23.90
2022-12-18T05:41:08.295Z,25.73
2022-12-18T05:43:38.056Z,25.13
2022-12-18T05:46:13.370Z,25.67
2022-12-18T05:48:41.830Z,25.38
2022-12-18T05:51:11.934Z,26.27
2022-12-18T05:53:40.661Z,26.13
2022-12-18T05:56:12.345Z,28.20
2022-12-18T05:58:39.976Z,27.45
2022-12-18T06:01:14.526Z,24.92
2022-12-18T06:03:42.557Z,27.20
2022-12-18T06:06:20.149Z,26.45
2022-12-18T06:08:48.129Z,26.77
2022-12-18T06:11:18.822Z,27.20
2022-12-18T06:13:47.419Z,25.75
2022-12-18T06:16:15.027Z,24.63
2022-12-18T06:18:42.613Z,26.17
2022-12-18T06:21:10.085Z,24.95
2022-12-18T06:23:37.877Z,26.58
2022-12-18T06:26:11.411Z,24.52
2022-12-18T06:28:39.103Z,25.42
2022-12-18T06:31:07.273Z,24.83
2022-12-18T06:33:35.321Z,25.00
2022-12-18T06:36:06.620Z,24.00
2022-12-18T06:38:35.755Z,24.33
2022-12-18T06:41:10.411Z,24.35
2022-12-18T06:43:38.510Z,24.27
2022-12-18T06:46:07.170Z,23.73
2022-12-18T06:48:35.249Z,23.05
2022-12-18T06:51:03.263Z,22.48
2022-12-18T06:53:30.942Z,22.92
2022-12-18T06:56:09.233Z,21.83
2022-12-18T06:58:38.661Z,23.52
2022-12-18T07:01:08.426Z,22.40
2022-12-18T07:03:35.951Z,23.60
2022-12-18T07:06:03.979Z,23.00
2022-12-18T07:08:33.144Z,22.90
2022-12-18T07:11:03.581Z,23.60
2022-12-18T07:13:30.999Z,23.75
2022-12-18T07:16:17.192Z,23.23
2022-12-18T07:18:48.507Z,22.92
2022-12-18T07:21:19.175Z,21.55
2022-12-18T07:26:19.099Z,22.15
2022-12-18T07:28:47.199Z,23.63
2022-12-18T07:31:17.991Z,24.77
2022-12-18T07:33:45.992Z,22.38
2022-12-18T07:36:14.824Z,22.20
2022-12-18T07:38:42.542Z,23.00
2022-12-18T07:41:12.951Z,24.05
2022-12-18T07:43:41.909Z,23.58
2022-12-18T07:46:11.735Z,24.55
2022-12-18T07:48:42.217Z,25.63
2022-12-18T07:51:10.614Z,25.30
2022-12-18T07:53:41.870Z,24.20
2022-12-18T07:56:29.396Z,24.98
2022-12-18T07:59:00.315Z,23.88
2022-12-18T08:01:31.063Z,25.20
2022-12-18T08:03:59.005Z,27.10
2022-12-18T08:06:26.684Z,26.52
2022-12-18T08:08:56.057Z,26.00
2022-12-18T08:11:26.283Z,24.98
2022-12-18T08:13:54.264Z,26.15
2022-12-18T08:16:23.077Z,24.73
2022-12-18T08:18:53.098Z,25.80
2022-12-18T08:21:24.109Z,24.35
2022-12-18T08:23:53.561Z,26.08
2022-12-18T08:26:21.810Z,24.65
2022-12-18T08:28:50.857Z,24.17
2022-12-18T08:31:19.499Z,24.10
2022-12-18T08:33:50.507Z,24.73
2022-12-18T08:36:18.610Z,25.25
2022-12-18T08:38:46.506Z,25.25
2022-12-18T08:41:17.685Z,25.08
2022-12-18T08:44:03.853Z,25.15
2022-12-18T08:46:40.780Z,25.50
2022-12-18T08:49:10.169Z,25.38
2022-12-18T08:51:39.018Z,26.80
2022-12-18T08:54:07.043Z,25.65
2022-12-18T08:56:35.346Z,24.15
2022-12-18T08:59:03.261Z,25.63
2022-12-18T09:01:31.194Z,26.92
2022-12-18T09:03:59.858Z,25.48
2022-12-18T09:06:27.942Z,25.00
2022-12-18T09:08:55.671Z,25.23
2022-12-18T09:11:26.604Z,25.73
2022-12-18T09:13:56.184Z,26.50
2022-12-18T09:16:30.347Z,26.52
2022-12-18T09:19:00.688Z,24.70
2022-12-18T09:21:31.677Z,25.58
2022-12-18T09:24:01.481Z,26.10
2022-12-18T09:26:29.323Z,26.85
2022-12-18T09:28:56.925Z,25.88
2022-12-18T09:31:25.705Z,25.77
2022-12-18T09:33:53.314Z,26.08
2022-12-18T09:36:20.754Z,24.90
2022-12-18T09:38:49.384Z,26.25
2022-12-18T09:41:23.017Z,26.00
2022-12-18T09:43:59.785Z,25.38
2022-12-18T09:46:38.423Z,26.23
2022-12-18T09:49:15.675Z,25.67
2022-12-18T09:51:50.973Z,26.48
2022-12-18T09:54:27.438Z,26.13
2022-12-18T09:56:55.635Z,24.98
2022-12-18T09:59:32.949Z,24.75
2022-12-18T10:02:00.640Z,24.85
2022-12-18T10:04:31.618Z,25.90
2022-12-18T10:07:33.832Z,24.55
2022-12-18T10:10:37.373Z,24.98
2022-12-18T10:13:36.020Z,25.33
2022-12-18T10:16:44.200Z,25.40
2022-12-18T10:19:36.357Z,23.90
2022-12-18T10:22:26.679Z,23.27
2022-12-18T10:25:02.924Z,22.75
2022-12-18T10:27:31.442Z,23.20
2022-12-18T10:30:02.044Z,24.77
2022-12-18T10:32:32.025Z,23.73
2022-12-18T10:35:01.012Z,23.00
2022-12-18T10:37:30.846Z,22.27
2022-12-18T10:40:08.079Z,23.25
2022-12-18T10:42:36.020Z,22.15
2022-12-18T10:45:10.803Z,22.55
2022-12-18T10:47:44.454Z,22.13
2022-12-18T10:51:08.657Z,22.08
2022-12-18T10:53:31.923Z,23.98
2022-12-18T10:56:05.462Z,22.90
2022-12-18T10:58:38.344Z,22.27
2022-12-18T11:01:13.558Z,22.00
2022-12-18T11:03:43.361Z,21.58
2022-12-18T11:06:16.507Z,22.58
2022-12-18T11:08:57.772Z,21.15
2022-12-18T11:11:26.267Z,22.08
2022-12-18T11:14:03.047Z,22.23
2022-12-18T11:17:03.052Z,21.38
2022-12-18T11:19:42.067Z,22.10
2022-12-18T11:22:30.087Z,22.30
2022-12-18T11:28:06.345Z,24.17
2022-12-18T11:30:37.600Z,22.70
2022-12-18T11:33:07.558Z,25.58
2022-12-18T11:35:53.795Z,24.85
2022-12-18T11:38:25.035Z,26.00
2022-12-18T11:41:46.075Z,25.13
2022-12-18T11:44:23.713Z,25.08
2022-12-18T11:46:57.844Z,25.60
2022-12-18T11:49:40.242Z,26.23
2022-12-18T11:52:19.946Z,25.90
2022-12-18T11:54:47.351Z,27.88
2022-12-18T11:57:43.389Z,28.75
2022-12-18T12:00:17.737Z,27.08
2022-12-18T12:03:18.915Z,27.27
2022-12-18T12:05:51.208Z,27.58
2022-12-18T12:08:50.620Z,26.38
2022-12-18T12:11:31.244Z,27.38
2022-12-18T12:14:06.112Z,30.60
2022-12-18T12:16:45.465Z,27.42
2022-12-18T12:19:34.998Z,29.13
2022-12-18T12:22:28.975Z,25.92
2022-12-18T12:25:08.549Z,27.73
2022-12-18T12:27:43.949Z,29.00
2022-12-18T12:30:38.748Z,28.23
2022-12-18T12:33:34.771Z,27.27
2022-12-18T12:36:26.740Z,27.73
2022-12-18T12:38:58.615Z,29.58
2022-12-18T12:41:47.105Z,26.92
2022-12-18T12:44:39.387Z,30.05
2022-12-18T12:47:24.056Z,30.27
2022-12-18T12:49:52.817Z,29.92
2022-12-18T12:52:42.057Z,30.45
2022-12-18T12:55:23.778Z,28.00
2022-12-18T12:58:03.383Z,29.95
2022-12-18T13:00:41.906Z,29.13
2022-12-18T13:03:45.192Z,29.33
2022-12-18T13:06:41.522Z,27.63
2022-12-18T13:09:12.258Z,27.50
2022-12-18T13:12:03.915Z,29.15
2022-12-18T13:14:42.061Z,28.85
2022-12-18T13:17:18.398Z,27.60
2022-12-18T13:19:49.713Z,27.55
2022-12-18T13:22:38.746Z,27.77
2022-12-18T13:25:34.366Z,29.70
2022-12-18T13:28:13.581Z,26.40
2022-12-18T13:30:42.785Z,28.83
2022-12-18T13:33:19.278Z,27.77
2022-12-18T13:35:47.036Z,28.50
2022-12-18T13:38:32.820Z,27.05
2022-12-18T13:41:21.508Z,25.02
2022-12-18T13:43:51.422Z,24.00
2022-12-18T13:46:42.521Z,25.83
2022-12-18T13:49:34.072Z,23.33
2022-12-18T13:52:01.482Z,22.33
2022-12-18T13:54:36.405Z,21.63
2022-12-18T13:57:05.914Z,23.10
2022-12-18T13:59:39.557Z,21.88
2022-12-18T14:02:19.149Z,21.92
2022-12-18T14:04:47.795Z,20.77
2022-12-18T14:07:16.803Z,23.70
2022-12-18T14:09:52.318Z,21.20
2022-12-18T14:12:44.640Z,21.38
2022-12-18T14:15:28.292Z,20.88
2022-12-18T14:18:10.018Z,22.42
2022-12-18T14:20:41.254Z,19.90
2022-12-18T14:23:26.050Z,20.65
2022-12-18T14:25:53.429Z,21.00
2022-12-18T14:28:22.787Z,21.05
2022-12-18T14:30:50.893Z,19.95
2022-12-18T14:33:24.445Z,20.33
2022-12-18T14:36:01.477Z,20.35
2022-12-18T14:38:37.508Z,20.35
2022-12-18T14:41:12.567Z,19.85
2022-12-18T14:43:42.455Z,20.00
2022-12-18T14:46:29.316Z,21.38
2022-12-18T14:48:57.426Z,20.00
2022-12-18T14:51:29.728Z,17.48
2022-12-18T14:54:03.472Z,19.75
2022-12-18T14:56:32.564Z,19.02
2022-12-18T14:59:06.778Z,20.50
2022-12-18T15:01:39.887Z,19.25
2022-12-18T15:04:32.982Z,20.48
2022-12-18T15:07:06.276Z,21.35
2022-12-18T15:09:33.819Z,22.00
2022-12-18T15:12:02.514Z,22.67
2022-12-18T15:14:41.555Z,19.65
2022-12-18T15:17:22.425Z,18.95
2022-12-18T15:19:54.476Z,19.77
2022-12-18T15:22:35.753Z,17.83
2022-12-18T15:25:05.107Z,18.85
2022-12-18T15:27:38.678Z,19.42
2022-12-18T15:30:08.982Z,19.73
2022-12-18T15:32:38.015Z,18.90
2022-12-18T15:35:11.926Z,19.67
2022-12-18T15:37:39.382Z,20.13
2022-12-18T15:40:18.646Z,20.08
2022-12-18T15:43:07.055Z,19.13
2022-12-18T15:45:34.627Z,21.02
2022-12-18T15:48:02.063Z,20.35
2022-12-18T15:50:32.392Z,20.80
2022-12-18T15:52:59.893Z,18.90
2022-12-18T15:55:46.563Z,18.50
2022-12-18T15:58:14.484Z,18.58
2022-12-18T16:00:43.533Z,18.02
2022-12-18T16:03:12.878Z,18.23
2022-12-18T16:05:40.438Z,18.02
2022-12-18T16:08:07.925Z,19.17
2022-12-18T16:10:36.216Z,17.08
2022-12-18T16:13:03.636Z,17.52
2022-12-18T16:15:31.148Z,15.52
2022-12-18T16:17:58.590Z,15.95
2022-12-18T16:20:26.134Z,14.55
2022-12-18T16:22:54.103Z,14.20
2022-12-18T16:25:24.444Z,13.32
2022-12-18T16:27:52.873Z,13.45
2022-12-18T16:30:22.607Z,13.50
2022-12-18T16:32:51.103Z,12.75
2022-12-18T16:35:18.779Z,13.82
2022-12-18T16:37:46.409Z,12.30
2022-12-18T16:40:16.913Z,11.88
2022-12-18T16:42:46.016Z,11.90
2022-12-18T16:45:16.808Z,10.57
2022-12-18T16:47:44.424Z,12.63
2022-12-18T16:50:12.433Z,11.57
2022-12-18T16:52:40.688Z,9.88
2022-12-18T16:55:08.658Z,10.50
2022-12-18T16:57:36.404Z,10.68
2022-12-18T17:00:06.205Z,10.73
2022-12-18T17:02:34.150Z,12.27
2022-12-18T17:05:01.912Z,10.80
2022-12-18T17:07:29.466Z,13.38
2022-12-18T17:09:57.026Z,11.10
2022-12-18T17:12:24.976Z,12.55
2022-12-18T17:14:52.538Z,11.57
2022-12-18T17:17:22.721Z,12.32
2022-12-18T17:19:52.048Z,13.43
2022-12-18T17:22:20.836Z,12.75
2022-12-18T17:24:48.428Z,13.50
2022-12-18T17:27:15.871Z,12.25
2022-12-18T17:29:47.698Z,12.60
2022-12-18T17:32:16.560Z,12.15
2022-12-18T17:34:44.317Z,13.00
2022-12-18T17:37:11.920Z,10.95
2022-12-18T17:39:40.066Z,12.05
2022-12-18T17:42:11.483Z,10.32
2022-12-18T17:44:43.888Z,10.50
2022-12-18T17:47:13.232Z,12.02
2022-12-18T17:49:41.211Z,10.93
2022-12-18T17:52:09.262Z,10.02
2022-12-18T17:54:39.955Z,9.20
2022-12-18T17:57:07.625Z,9.52
2022-12-18T17:59:35.256Z,8.68
2022-12-18T18:02:02.842Z,10.00
2022-12-18T18:04:30.737Z,9.77
2022-12-18T18:06:58.418Z,10.07
2022-12-18T18:09:26.102Z,8.80
2022-12-18T18:12:12.351Z,11.10
2022-12-18T18:14:39.959Z,8.27
2022-12-18T18:17:07.747Z,8.80
2022-12-18T18:19:35.728Z,9.40
2022-12-18T18:22:03.685Z,9.85
2022-12-18T18:24:33.148Z,9.18
2022-12-18T18:27:00.669Z,8.95
2022-12-18T18:29:30.517Z,8.27
2022-12-18T18:31:58.985Z,11.70
2022-12-18T18:34:31.817Z,8.77
2022-12-18T18:37:01.647Z,10.20
2022-12-18T18:39:30.306Z,9.27
2022-12-18T18:41:57.854Z,9.63
2022-12-18T18:44:25.999Z,8.85
2022-12-18T18:46:58.318Z,8.25
2022-12-18T18:49:27.879Z,9.43
2022-12-18T18:51:57.119Z,8.73
2022-12-18T18:54:25.767Z,8.52
2022-12-18T18:57:19.275Z,7.70
2022-12-18T18:59:41.213Z,8.60
2022-12-18T19:02:16.559Z,8.23
2022-12-18T19:04:46.593Z,10.10
2022-12-18T19:10:04.871Z,7.90
2022-12-18T19:12:53.138Z,7.32
2022-12-18T19:15:22.474Z,8.30
2022-12-18T19:17:50.051Z,7.68
2022-12-18T19:20:18.238Z,8.25
2022-12-18T19:22:54.849Z,8.88
2022-12-18T19:25:38.176Z,9.20
2022-12-18T19:28:10.035Z,9.20
2022-12-18T19:30:49.352Z,8.90
2022-12-18T19:33:41.604Z,7.72
2022-12-18T19:36:19.104Z,7.50
2022-12-18T19:38:47.994Z,8.32
2022-12-18T19:41:16.732Z,10.70
2022-12-18T19:43:44.820Z,7.85
2022-12-18T19:46:16.684Z,8.38
2022-12-18T19:48:45.381Z,8.73
2022-12-18T19:51:19.559Z,8.52
2022-12-18T19:53:47.577Z,10.57
2022-12-18T19:56:17.419Z,10.48
2022-12-18T19:58:46.103Z,10.73
2022-12-18T20:01:16.756Z,9.77
2022-12-18T20:03:52.692Z,9.65
2022-12-18T20:06:35.283Z,9.38
2022-12-18T20:09:06.260Z,10.18
2022-12-18T20:11:38.383Z,11.43
2022-12-18T20:14:14.535Z,10.07
2022-12-18T20:16:46.134Z,11.23
2022-12-18T20:19:14.332Z,8.52
2022-12-18T20:21:43.313Z,9.15
2022-12-18T20:24:10.783Z,8.35
2022-12-18T20:26:38.472Z,9.25
2022-12-18T20:29:06.053Z,8.65
2022-12-18T20:31:33.522Z,8.18
2022-12-18T20:34:01.618Z,8.95
2022-12-18T20:36:30.814Z,8.93
2022-12-18T20:39:01.691Z,8.23
2022-12-18T20:41:37.647Z,8.68
2022-12-18T20:44:22.990Z,8.02
2022-12-18T20:46:53.832Z,7.15
2022-12-18T20:49:21.976Z,5.93
2022-12-18T20:51:57.733Z,7.22
2022-12-18T20:54:27.222Z,6.35
2022-12-18T20:56:55.556Z,5.75
2022-12-18T20:59:25.483Z,5.60
2022-12-18T21:01:53.554Z,5.82
2022-12-18T21:04:21.729Z,5.45
2022-12-18T21:06:55.787Z,5.72
2022-12-18T21:09:37.840Z,5.13
2022-12-18T21:12:35.093Z,4.95
2022-12-18T21:15:10.628Z,4.70
2022-12-18T21:17:43.401Z,4.07
2022-12-18T21:20:17.882Z,4.78
2022-12-18T21:22:47.280Z,3.83
2022-12-18T21:25:14.680Z,3.97
2022-12-18T21:27:42.125Z,3.33
2022-12-18T21:30:10.232Z,3.47
2022-12-18T21:32:37.897Z,4.10
2022-12-18T21:35:05.870Z,4.28
2022-12-18T21:37:33.393Z,3.53
2022-12-18T21:40:00.873Z,3.92
2022-12-18T21:42:46.982Z,3.80
2022-12-18T21:45:14.541Z,4.28
2022-12-18T21:47:42.006Z,3.35
2022-12-18T21:50:09.695Z,4.05
2022-12-18T21:52:37.248Z,3.55
2022-12-18T21:55:09.591Z,3.53
2022-12-18T21:57:39.260Z,3.20
2022-12-18T22:00:11.579Z,3.30
2022-12-18T22:02:47.078Z,2.90
2022-12-18T22:05:14.795Z,2.90
2022-12-18T22:07:42.389Z,3.30
2022-12-18T22:10:10.089Z,2.53
2022-12-18T22:12:43.369Z,2.83
2022-12-18T22:15:21.020Z,2.60
2022-12-18T22:17:53.439Z,2.03
2022-12-18T22:20:29.777Z,2.90
2022-12-18T22:22:58.327Z,2.78
2022-12-18T22:25:25.921Z,2.65
2022-12-18T22:28:11.900Z,2.40
2022-12-18T22:30:39.685Z,2.03
2022-12-18T22:33:07.120Z,2.38
2022-12-18T22:35:34.603Z,2.50
2022-12-18T22:38:02.237Z,2.25
2022-12-18T22:40:30.089Z,2.33
2022-12-18T22:42:57.811Z,2.08
2022-12-18T22:45:26.245Z,1.80
2022-12-18T22:47:54.262Z,2.17
2022-12-18T22:50:21.842Z,1.75
2022-12-18T22:52:49.382Z,1.80
2022-12-18T22:55:16.940Z,2.50
2022-12-18T22:57:49.144Z,1.95
2022-12-18T23:00:22.782Z,2.92
2022-12-18T23:02:59.954Z,2.28
2022-12-18T23:05:30.727Z,2.40
2022-12-18T23:07:58.814Z,2.50
2022-12-18T23:10:27.385Z,2.78
2022-12-18T23:12:55.118Z,3.00
2022-12-18T23:15:27.717Z,3.30
2022-12-18T23:17:58.257Z,3.33
2022-12-18T23:20:27.240Z,3.63
2022-12-18T23:22:54.982Z,3.25
2022-12-18T23:25:22.562Z,2.75
2022-12-18T23:27:50.126Z,3.60
2022-12-18T23:30:17.729Z,3.33
2022-12-18T23:32:45.236Z,3.30
2022-12-18T23:35:14.282Z,3.20
2022-12-18T23:40:29.596Z,2.90
2022-12-18T23:42:58.435Z,2.88
2022-12-18T23:45:25.929Z,3.50
2022-12-18T23:47:53.303Z,3.17
2022-12-18T23:50:23.800Z,2.70
2022-12-18T23:52:56.174Z,3.35
2022-12-18T23:55:26.892Z,2.70
2022-12-18T23:57:55.060Z,2.53
